createdAt,value
2019-05-21T00:00:02.823Z,99.90
2019-05-21T00:03:24.938Z,99.90
2019-05-21T00:06:47.506Z,99.90
2019-05-21T00:10:10.142Z,99.90
2019-05-21T00:13:32.578Z,99.90
2019-05-21T00:16:54.743Z,99.90
2019-05-21T00:20:17.135Z,99.90
2019-05-21T00:23:39.670Z,99.90
2019-05-21T00:27:01.940Z,99.90
2019-05-21T00:31:01.006Z,99.90
2019-05-21T00:35:00.015Z,99.90
2019-05-21T00:38:58.708Z,99.90
2019-05-21T00:42:30.087Z,99.90
2019-05-21T00:45:52.461Z,99.90
2019-05-21T00:49:14.826Z,99.90
2019-05-21T00:52:37.084Z,99.90
2019-05-21T00:55:59.486Z,99.90
2019-05-21T00:59:22.132Z,99.90
2019-05-21T01:02:44.610Z,99.90
2019-05-21T01:06:07.533Z,99.90
2019-05-21T01:09:29.990Z,99.90
2019-05-21T01:12:52.655Z,99.90
2019-05-21T01:16:15.518Z,99.90
2019-05-21T01:19:38.390Z,99.90
2019-05-21T01:23:01.245Z,99.90
2019-05-21T01:26:24.105Z,99.90
2019-05-21T01:29:47.008Z,99.90
2019-05-21T01:33:09.774Z,99.90
2019-05-21T01:36:32.308Z,99.90
2019-05-21T01:39:55.446Z,99.90
2019-05-21T01:43:17.895Z,99.90
2019-05-21T01:46:40.239Z,99.90
2019-05-21T01:50:02.279Z,99.90
2019-05-21T01:53:24.902Z,99.90
2019-05-21T01:56:47.390Z,99.90
2019-05-21T02:00:09.688Z,99.90
2019-05-21T02:03:32.207Z,99.90
2019-05-21T02:06:54.311Z,99.90
2019-05-21T02:10:16.793Z,99.90
2019-05-21T02:13:39.272Z,99.90
2019-05-21T02:17:01.919Z,99.90
2019-05-21T02:20:24.069Z,99.90
2019-05-21T02:23:46.531Z,99.90
2019-05-21T02:27:09.174Z,99.90
2019-05-21T02:30:31.949Z,99.90
2019-05-21T02:33:54.688Z,99.90
2019-05-21T02:37:17.575Z,99.90
2019-05-21T02:40:39.734Z,99.90
2019-05-21T02:44:02.153Z,99.90
2019-05-21T02:47:24.653Z,99.90
2019-05-21T02:50:46.888Z,99.90
2019-05-21T02:54:09.819Z,99.90
2019-05-21T02:57:40.501Z,99.90
2019-05-21T03:01:17.711Z,99.90
2019-05-21T03:04:39.376Z,99.90
2019-05-21T03:08:01.483Z,99.90
2019-05-21T03:11:23.909Z,99.90
2019-05-21T03:14:47.011Z,99.90
2019-05-21T03:18:09.464Z,99.90
2019-05-21T03:21:31.904Z,99.90
2019-05-21T03:24:54.627Z,99.90
2019-05-21T03:28:17.250Z,99.90
2019-05-21T03:31:39.894Z,99.90
2019-05-21T03:35:02.942Z,99.90
2019-05-21T03:38:25.382Z,99.90
2019-05-21T03:41:48.236Z,99.90
2019-05-21T03:45:11.479Z,99.90
2019-05-21T03:48:34.002Z,99.90
2019-05-21T03:51:56.796Z,99.90
2019-05-21T03:55:19.212Z,99.90
2019-05-21T03:58:41.574Z,99.90
2019-05-21T04:02:03.904Z,99.90
2019-05-21T04:05:26.539Z,99.90
2019-05-21T04:08:49.143Z,99.90
2019-05-21T04:12:11.364Z,99.90
2019-05-21T04:15:33.574Z,99.90
2019-05-21T04:19:02.342Z,99.90
2019-05-21T04:22:24.832Z,99.90
2019-05-21T04:25:47.396Z,99.90
2019-05-21T04:29:09.738Z,99.90
2019-05-21T04:32:32.159Z,99.90
2019-05-21T04:35:54.487Z,99.90
2019-05-21T04:39:16.581Z,99.90
2019-05-21T04:42:39.164Z,99.90
2019-05-21T04:46:01.469Z,99.90
2019-05-21T04:49:23.904Z,99.90
2019-05-21T04:52:46.070Z,99.90
2019-05-21T04:56:08.487Z,99.90
2019-05-21T04:59:31.114Z,99.90
2019-05-21T05:02:53.697Z,99.90
2019-05-21T05:06:15.815Z,99.90
2019-05-21T05:09:42.688Z,99.90
2019-05-21T05:13:08.593Z,99.90
2019-05-21T05:16:31.100Z,99.90
2019-05-21T05:19:53.586Z,99.90
2019-05-21T05:23:18.971Z,99.90
2019-05-21T05:26:41.806Z,99.90
2019-05-21T05:30:05.214Z,99.90
2019-05-21T05:33:27.339Z,99.90
2019-05-21T05:36:49.809Z,99.90
2019-05-21T05:40:13.746Z,99.90
2019-05-21T05:43:36.382Z,99.90
2019-05-21T05:46:58.852Z,99.90
2019-05-21T05:50:24.397Z,99.90
2019-05-21T05:53:58.736Z,99.90
2019-05-21T05:57:21.260Z,99.90
2019-05-21T06:00:43.681Z,99.90
2019-05-21T06:04:06.353Z,99.90
2019-05-21T06:07:28.955Z,99.90
2019-05-21T06:10:51.260Z,99.90
2019-05-21T06:14:13.917Z,99.90
2019-05-21T06:17:36.664Z,99.90
2019-05-21T06:20:59.383Z,99.90
2019-05-21T06:24:21.901Z,99.90
2019-05-21T06:27:44.300Z,99.90
2019-05-21T06:31:07.122Z,99.90
2019-05-21T06:34:29.832Z,99.90
2019-05-21T06:37:52.427Z,99.90
2019-05-21T06:41:15.176Z,99.90
2019-05-21T06:44:38.105Z,99.90
2019-05-21T06:48:00.739Z,99.90
2019-05-21T06:51:23.514Z,99.90
2019-05-21T06:54:46.427Z,99.90
2019-05-21T06:58:09.299Z,99.90
2019-05-21T07:01:31.993Z,99.90
2019-05-21T07:04:54.830Z,99.90
2019-05-21T07:08:32.035Z,99.90
2019-05-21T07:11:41.230Z,99.90
2019-05-21T07:15:04.238Z,99.90
2019-05-21T07:18:27.013Z,99.90
2019-05-21T07:21:49.662Z,99.90
2019-05-21T07:25:12.707Z,99.90
2019-05-21T07:28:35.057Z,99.90
2019-05-21T07:31:57.570Z,99.90
2019-05-21T07:35:20.167Z,99.90
2019-05-21T07:38:52.751Z,99.90
2019-05-21T07:42:06.765Z,99.90
2019-05-21T07:45:29.162Z,99.90
2019-05-21T07:48:52.103Z,99.90
2019-05-21T07:52:14.479Z,99.90
2019-05-21T07:55:36.578Z,99.90
2019-05-21T07:58:59.260Z,99.90
2019-05-21T08:02:21.609Z,99.70
2019-05-21T08:05:43.957Z,99.90
2019-05-21T08:09:13.201Z,98.60
2019-05-21T08:12:38.770Z,99.60
2019-05-21T08:15:54.687Z,99.80
2019-05-21T08:19:17.101Z,99.10
2019-05-21T08:22:39.618Z,99.90
2019-05-21T08:26:02.246Z,99.50
2019-05-21T08:29:24.976Z,97.90
2019-05-21T08:32:47.664Z,96.90
2019-05-21T08:36:10.039Z,98.80
2019-05-21T08:39:32.543Z,98.40
2019-05-21T08:42:55.217Z,98.60
2019-05-21T08:46:17.659Z,99.90
2019-05-21T08:49:40.095Z,99.20
2019-05-21T08:53:02.669Z,98.50
2019-05-21T08:56:25.486Z,99.90
2019-05-21T08:59:48.767Z,99.30
2019-05-21T09:03:11.166Z,99.90
2019-05-21T09:06:33.654Z,98.40
2019-05-21T09:09:55.940Z,99.20
2019-05-21T09:13:18.921Z,99.90
2019-05-21T09:16:41.834Z,97.80
2019-05-21T09:20:05.428Z,97.50
2019-05-21T09:23:27.985Z,98.20
2019-05-21T09:26:50.759Z,99.30
2019-05-21T09:30:14.366Z,97.90
2019-05-21T09:33:36.933Z,97.60
2019-05-21T09:36:59.608Z,99.00
2019-05-21T09:40:24.246Z,97.70
2019-05-21T09:43:47.590Z,96.10
2019-05-21T09:47:10.280Z,94.70
2019-05-21T09:50:32.810Z,96.70
2019-05-21T09:53:55.516Z,99.40
2019-05-21T09:57:23.256Z,98.80
2019-05-21T10:01:17.221Z,98.60
2019-05-21T10:04:39.522Z,98.50
2019-05-21T10:08:02.018Z,98.60
2019-05-21T10:11:24.536Z,99.00
2019-05-21T10:14:47.427Z,98.10
2019-05-21T10:18:09.955Z,98.00
2019-05-21T10:21:32.479Z,98.90
2019-05-21T10:24:55.248Z,99.90
2019-05-21T10:28:17.829Z,99.70
2019-05-21T10:31:40.506Z,99.70
2019-05-21T10:35:04.351Z,99.90
2019-05-21T10:38:27.332Z,99.90
2019-05-21T10:41:49.773Z,99.80
2019-05-21T10:45:12.540Z,99.90
2019-05-21T10:48:34.687Z,99.90
2019-05-21T10:51:56.907Z,99.90
2019-05-21T10:55:18.988Z,99.90
2019-05-21T10:58:41.373Z,99.90
2019-05-21T11:02:11.417Z,99.90
2019-05-21T11:05:36.251Z,99.90
2019-05-21T11:08:58.971Z,99.30
2019-05-21T11:12:20.960Z,98.60
2019-05-21T11:15:43.645Z,98.40
2019-05-21T11:19:06.063Z,99.30
2019-05-21T11:22:28.690Z,99.50
2019-05-21T11:25:51.209Z,98.90
2019-05-21T11:29:13.478Z,98.20
2019-05-21T11:32:35.665Z,97.80
2019-05-21T11:35:58.052Z,97.10
2019-05-21T11:39:20.412Z,97.40
2019-05-21T11:42:43.035Z,97.70
2019-05-21T11:46:05.671Z,97.60
2019-05-21T11:49:28.058Z,97.50
2019-05-21T11:52:50.681Z,98.90
2019-05-21T11:56:13.211Z,97.90
2019-05-21T11:59:35.555Z,97.70
2019-05-21T12:02:58.233Z,98.00
2019-05-21T12:06:20.865Z,97.00
2019-05-21T12:09:43.114Z,96.60
2019-05-21T12:13:05.576Z,96.90
2019-05-21T12:16:28.207Z,96.50
2019-05-21T12:19:50.682Z,97.20
2019-05-21T12:23:13.178Z,97.70
2019-05-21T12:26:35.587Z,96.80
2019-05-21T12:29:58.043Z,95.40
2019-05-21T12:33:20.157Z,95.00
2019-05-21T12:36:42.824Z,95.30
2019-05-21T12:40:07.958Z,95.80
2019-05-21T12:43:30.271Z,95.50
2019-05-21T12:46:52.927Z,96.40
2019-05-21T12:50:16.683Z,97.40
2019-05-21T12:53:38.816Z,96.90
2019-05-21T12:57:01.391Z,96.20
2019-05-21T13:00:28.944Z,95.80
2019-05-21T13:03:51.489Z,95.00
2019-05-21T13:07:15.554Z,95.00
2019-05-21T13:10:37.958Z,94.70
2019-05-21T13:14:00.409Z,94.90
2019-05-21T13:17:22.791Z,94.40
2019-05-21T13:20:45.209Z,93.50
2019-05-21T13:24:07.654Z,92.80
2019-05-21T13:27:29.884Z,93.70
2019-05-21T13:30:52.141Z,92.70
2019-05-21T13:34:14.885Z,93.50
2019-05-21T13:37:37.518Z,93.20
2019-05-21T13:41:01.792Z,93.50
2019-05-21T13:44:24.542Z,92.70
2019-05-21T13:47:47.283Z,92.80
2019-05-21T13:51:10.155Z,91.50
2019-05-21T13:54:32.688Z,92.30
2019-05-21T13:57:55.412Z,93.30
2019-05-21T14:01:18.902Z,92.90
2019-05-21T14:04:41.343Z,93.10
2019-05-21T14:08:03.912Z,93.70
2019-05-21T14:11:26.484Z,92.80
2019-05-21T14:14:48.752Z,93.40
2019-05-21T14:18:11.104Z,94.80
2019-05-21T14:21:33.251Z,94.30
2019-05-21T14:24:55.317Z,94.10
2019-05-21T14:28:17.759Z,94.70
2019-05-21T14:31:40.220Z,94.10
2019-05-21T14:35:02.895Z,94.20
2019-05-21T14:38:25.410Z,94.60
2019-05-21T14:41:47.996Z,94.70
2019-05-21T14:45:10.896Z,95.40
2019-05-21T14:48:33.391Z,96.10
2019-05-21T14:51:55.839Z,96.60
2019-05-21T14:55:18.499Z,97.40
2019-05-21T14:58:41.074Z,98.40
2019-05-21T15:02:05.956Z,99.00
2019-05-21T15:05:28.622Z,99.90
2019-05-21T15:08:50.942Z,99.90
2019-05-21T15:12:13.412Z,99.90
2019-05-21T15:15:36.446Z,99.90
2019-05-21T15:18:59.027Z,99.90
2019-05-21T15:22:21.498Z,99.90
2019-05-21T15:25:43.588Z,99.90
2019-05-21T15:29:06.208Z,99.90
2019-05-21T15:32:30.702Z,99.90
2019-05-21T15:35:53.049Z,99.90
2019-05-21T15:39:15.823Z,99.90
2019-05-21T15:42:37.972Z,99.90
2019-05-21T15:46:00.711Z,99.90
2019-05-21T15:49:35.434Z,99.90
2019-05-21T15:52:47.386Z,99.90
2019-05-21T15:56:10.154Z,99.90
2019-05-21T15:59:32.582Z,99.90
2019-05-21T16:02:55.360Z,99.90
2019-05-21T16:06:18.393Z,99.90
2019-05-21T16:09:41.027Z,99.90
2019-05-21T16:13:03.895Z,99.90
2019-05-21T16:16:26.311Z,99.90
2019-05-21T16:19:48.759Z,99.90
2019-05-21T16:23:10.883Z,99.90
2019-05-21T16:26:33.312Z,99.90
2019-05-21T16:29:55.731Z,99.90
2019-05-21T16:33:18.465Z,99.90
2019-05-21T16:36:41.254Z,99.90
2019-05-21T16:40:04.599Z,99.90
2019-05-21T16:43:27.268Z,99.90
2019-05-21T16:46:49.719Z,99.90
2019-05-21T16:50:12.099Z,99.90
2019-05-21T16:53:34.755Z,99.90
2019-05-21T16:56:57.175Z,99.90
2019-05-21T17:00:21.882Z,99.90
2019-05-21T17:03:57.772Z,99.90
2019-05-21T17:07:08.242Z,99.90
2019-05-21T17:10:30.653Z,99.90
2019-05-21T17:13:53.069Z,99.90
2019-05-21T17:17:15.509Z,99.90
2019-05-21T17:20:38.052Z,99.90
2019-05-21T17:24:00.590Z,99.90
2019-05-21T17:27:22.997Z,99.90
2019-05-21T17:30:45.536Z,99.90
2019-05-21T17:34:08.143Z,99.90
2019-05-21T17:37:30.818Z,99.90
2019-05-21T17:40:53.584Z,99.90
2019-05-21T17:44:15.618Z,99.90
2019-05-21T17:47:38.379Z,99.90
2019-05-21T17:51:00.664Z,99.90
2019-05-21T17:54:23.707Z,99.90
2019-05-21T17:57:46.309Z,99.90
2019-05-21T18:01:10.073Z,99.90
2019-05-21T18:04:32.836Z,99.90
2019-05-21T18:07:55.773Z,99.90
2019-05-21T18:11:18.425Z,99.90
2019-05-21T18:14:41.511Z,99.90
2019-05-21T18:18:04.751Z,99.90
2019-05-21T18:21:27.618Z,99.90
2019-05-21T18:24:50.711Z,99.90
2019-05-21T18:28:13.132Z,99.90
2019-05-21T18:31:35.833Z,99.90
2019-05-21T18:34:58.385Z,99.90
2019-05-21T18:38:21.326Z,99.90
2019-05-21T18:41:43.369Z,99.90
2019-05-21T18:45:06.152Z,99.90
2019-05-21T18:48:31.714Z,99.90
2019-05-21T18:51:54.669Z,99.90
2019-05-21T18:55:17.203Z,99.90
2019-05-21T18:58:40.152Z,99.90
2019-05-21T19:02:03.079Z,99.90
2019-05-21T19:05:25.708Z,99.90
2019-05-21T19:08:47.983Z,99.90
2019-05-21T19:12:10.342Z,99.90
2019-05-21T19:15:32.735Z,99.90
2019-05-21T19:18:55.103Z,99.90
2019-05-21T19:22:17.160Z,99.90
2019-05-21T19:25:39.862Z,99.90
2019-05-21T19:29:02.371Z,99.90
2019-05-21T19:32:24.875Z,99.90
2019-05-21T19:35:47.220Z,99.90
2019-05-21T19:39:09.412Z,99.90
2019-05-21T19:42:31.596Z,99.90
2019-05-21T19:45:53.798Z,99.90
2019-05-21T19:49:15.974Z,99.90
2019-05-21T19:52:38.199Z,99.90
2019-05-21T19:56:01.067Z,99.90
2019-05-21T19:59:23.630Z,99.90
2019-05-21T20:02:48.487Z,99.90
2019-05-21T20:06:12.099Z,99.90
2019-05-21T20:09:36.072Z,99.90
2019-05-21T20:12:58.785Z,99.90
2019-05-21T20:16:22.014Z,99.90
2019-05-21T20:19:46.582Z,99.90
2019-05-21T20:23:10.428Z,99.90
2019-05-21T20:26:34.371Z,99.90
2019-05-21T20:30:11.518Z,99.90
2019-05-21T20:33:23.485Z,99.90
2019-05-21T20:36:46.186Z,99.90
2019-05-21T20:40:10.723Z,99.90
2019-05-21T20:43:33.237Z,99.90
2019-05-21T20:46:57.020Z,99.90
2019-05-21T20:50:22.144Z,99.90
2019-05-21T20:53:46.001Z,99.90
2019-05-21T20:57:09.927Z,99.90
2019-05-21T21:00:43.294Z,99.90
2019-05-21T21:04:06.241Z,99.90
2019-05-21T21:07:30.276Z,99.90
2019-05-21T21:10:52.724Z,99.90
2019-05-21T21:14:18.232Z,99.90
2019-05-21T21:17:40.316Z,99.90
2019-05-21T21:21:02.459Z,99.90
2019-05-21T21:24:24.919Z,99.90
2019-05-21T21:27:47.435Z,99.90
2019-05-21T21:31:10.205Z,99.90
2019-05-21T21:34:32.759Z,99.90
2019-05-21T21:37:55.098Z,99.90
2019-05-21T21:41:18.779Z,99.90
2019-05-21T21:44:41.819Z,99.90
2019-05-21T21:48:04.148Z,99.90
2019-05-21T21:51:26.323Z,99.90
2019-05-21T21:54:48.923Z,99.90
2019-05-21T21:58:11.694Z,99.90
2019-05-21T22:01:51.012Z,99.90
2019-05-21T22:05:14.039Z,99.90
2019-05-21T22:08:36.665Z,99.90
2019-05-21T22:11:59.964Z,99.90
2019-05-21T22:15:22.940Z,99.90
2019-05-21T22:18:45.506Z,99.90
2019-05-21T22:22:09.993Z,99.90
2019-05-21T22:25:32.534Z,99.90
2019-05-21T22:28:55.523Z,99.90
2019-05-21T22:32:17.695Z,99.90
2019-05-21T22:35:39.906Z,99.90
2019-05-21T22:39:02.224Z,99.90
2019-05-21T22:42:25.498Z,99.90
2019-05-21T22:45:47.723Z,99.90
2019-05-21T22:49:10.872Z,99.90
2019-05-21T22:52:33.750Z,99.90
2019-05-21T22:55:56.955Z,99.90
2019-05-21T22:59:20.002Z,99.90
2019-05-21T23:02:44.753Z,99.90
2019-05-21T23:06:07.552Z,99.90
2019-05-21T23:09:30.522Z,99.90
2019-05-21T23:12:54.252Z,99.90
2019-05-21T23:16:16.803Z,99.90
2019-05-21T23:19:39.550Z,99.90
2019-05-21T23:23:03.616Z,99.90
2019-05-21T23:26:26.117Z,99.90
2019-05-21T23:29:49.647Z,99.90
2019-05-21T23:33:15.092Z,99.90
2019-05-21T23:36:38.015Z,99.90
2019-05-21T23:40:00.829Z,99.90
2019-05-21T23:43:23.444Z,99.90
2019-05-21T23:46:45.766Z,99.90
2019-05-21T23:50:11.824Z,99.90
2019-05-21T23:53:34.725Z,99.90
2019-05-21T23:56:57.699Z,99.90
